Time;durP1;ratioP1;P1;durP2;ratioP2;P2;SDS_P1;SDS_P2;PMS_P1;PMS_P2;Temp;Humidity;BMP_temperature;BMP_pressure;BME280_temperature;BME280_humidity;BME280_pressure;Samples;Min_cycle;Max_cycle;Signal;HPM_P1;HPM_P2
2024/01/07 00:00:24;;;;;;;0.30;0.10;;;;;;;6.12;97.05;99892.59;5053500;28;20458;-54
2024/01/07 00:02:50;;;;;;;0.30;0.20;;;;;;;6.01;97.38;99889.25;5054598;28;20470;-54
2024/01/07 00:05:17;;;;;;;0.30;0.10;;;;;;;6.11;96.34;99895.25;5040758;28;20912;-54
2024/01/07 00:07:44;;;;;;;0.30;0.20;;;;;;;6.17;96.33;99890.75;5054188;28;20478;-53
2024/01/07 00:10:10;;;;;;;0.23;0.10;;;;;;;6.17;96.49;99888.13;5040810;28;20457;-54
2024/01/07 00:12:37;;;;;;;0.30;0.20;;;;;;;5.85;97.32;99899.16;5053924;28;20921;-53
2024/01/07 00:15:03;;;;;;;0.30;0.10;;;;;;;5.68;97.67;99900.31;5054205;28;20454;-54
2024/01/07 00:17:30;;;;;;;0.30;0.20;;;;;;;5.92;97.89;99897.34;5042638;28;20530;-53
2024/01/07 00:19:57;;;;;;;0.30;0.10;;;;;;;5.83;97.87;99900.09;5047099;28;20454;-54
2024/01/07 00:22:23;;;;;;;0.30;0.20;;;;;;;5.93;97.73;99905.22;5046485;28;20868;-54
2024/01/07 00:24:50;;;;;;;0.30;0.20;;;;;;;5.61;98.22;99900.38;5054268;28;20455;-53
2024/01/07 00:27:16;;;;;;;0.30;0.20;;;;;;;5.63;98.77;99897.75;5042020;28;20871;-53
2024/01/07 00:29:43;;;;;;;0.30;0.20;;;;;;;5.64;98.42;99902.13;5054135;28;20888;-53
2024/01/07 00:32:09;;;;;;;0.30;0.20;;;;;;;5.60;98.99;99903.91;5054354;28;20558;-54
2024/01/07 00:34:36;;;;;;;0.30;0.10;;;;;;;5.63;98.89;99903.91;5053058;28;20488;-54
2024/01/07 00:37:03;;;;;;;0.30;0.13;;;;;;;5.58;99.39;99907.47;5053763;28;20443;-54
2024/01/07 00:39:29;;;;;;;0.30;0.10;;;;;;;5.54;99.41;99904.03;5053566;28;20446;-53
2024/01/07 00:41:56;;;;;;;0.30;0.20;;;;;;;5.63;98.31;99905.66;5053780;28;20546;-54
2024/01/07 00:44:22;;;;;;;0.30;0.20;;;;;;;5.65;98.44;99907.38;5047446;28;20478;-54
2024/01/07 00:46:48;;;;;;;0.30;0.20;;;;;;;5.69;99.13;99913.47;5040392;28;20613;-53
2024/01/07 00:49:15;;;;;;;0.30;0.20;;;;;;;5.76;98.57;99919.53;5053620;28;20541;-53
2024/01/07 00:51:42;;;;;;;0.30;0.20;;;;;;;5.61;98.68;99916.22;5053613;28;20791;-53
2024/01/07 00:54:09;;;;;;;0.30;0.10;;;;;;;5.60;98.61;99917.09;5046958;28;20490;-53
2024/01/07 00:56:35;;;;;;;0.30;0.20;;;;;;;5.73;98.71;99920.44;5046473;28;20883;-53
2024/01/07 00:59:02;;;;;;;0.30;0.20;;;;;;;5.58;98.70;99923.31;5053377;28;20461;-53
2024/01/07 01:01:28;;;;;;;0.30;0.20;;;;;;;5.66;98.64;99918.81;5053406;28;20536;-53
2024/01/07 01:03:55;;;;;;;0.30;0.20;;;;;;;5.50;99.17;99925.19;5039900;28;20470;-53
2024/01/07 01:06:21;;;;;;;0.30;0.20;;;;;;;5.52;99.17;99926.91;5051908;28;20486;-53
2024/01/07 01:08:48;;;;;;;0.30;0.20;;;;;;;5.61;98.34;99932.03;5045056;28;20460;-54
2024/01/07 01:11:14;;;;;;;0.30;0.20;;;;;;;5.32;98.96;99932.44;5046677;28;20442;-53
2024/01/07 01:13:41;;;;;;;0.30;0.20;;;;;;;5.74;99.39;99938.00;5053218;28;20475;-54
2024/01/07 01:16:07;;;;;;;0.23;0.17;;;;;;;5.83;99.22;99945.78;5052812;28;20566;-53
2024/01/07 01:18:34;;;;;;;0.23;0.10;;;;;;;5.65;98.25;99952.22;5052877;28;20964;-53
2024/01/07 01:21:01;;;;;;;0.30;0.20;;;;;;;5.72;98.38;99957.38;5052390;28;20450;-54
2024/01/07 01:23:27;;;;;;;0.20;0.10;;;;;;;5.59;99.17;99959.31;5040240;28;20477;-53
2024/01/07 01:25:54;;;;;;;0.30;0.20;;;;;;;5.43;99.08;99956.00;5052849;28;21004;-54
2024/01/07 01:28:20;;;;;;;0.30;0.10;;;;;;;5.55;98.38;99955.84;5052812;28;20919;-53
2024/01/07 01:30:46;;;;;;;0.30;0.20;;;;;;;5.61;98.83;99953.13;5042458;28;20451;-54
2024/01/07 01:33:13;;;;;;;0.30;0.20;;;;;;;5.54;98.63;99962.03;5052740;28;20557;-54
2024/01/07 01:35:40;;;;;;;0.30;0.10;;;;;;;5.73;98.56;99964.41;5052768;28;20505;-53
2024/01/07 01:38:07;;;;;;;0.30;0.20;;;;;;;5.66;98.23;99963.63;5052545;28;20457;-53
2024/01/07 01:40:34;;;;;;;0.30;0.20;;;;;;;5.55;98.62;99962.91;5052666;28;20537;-53
2024/01/07 01:43:00;;;;;;;0.30;0.20;;;;;;;5.61;98.46;99965.44;5052429;28;21066;-54
2024/01/07 01:45:27;;;;;;;0.30;0.20;;;;;;;5.70;98.56;99967.09;5052423;28;20500;-54
2024/01/07 01:47:54;;;;;;;0.20;0.20;;;;;;;5.74;97.89;99968.78;5052440;28;20850;-54
2024/01/07 01:50:20;;;;;;;0.30;0.20;;;;;;;5.72;98.04;99960.88;5046922;28;20880;-54
2024/01/07 01:52:48;;;;;;;0.30;0.13;;;;;;;5.67;98.01;99960.09;5044080;28;20480;-54
2024/01/07 01:55:14;;;;;;;0.30;0.10;;;;;;;5.67;97.77;99961.84;5047539;28;20919;-53
2024/01/07 01:57:41;;;;;;;0.30;0.10;;;;;;;5.59;98.54;99952.28;5052329;28;20496;-53
2024/01/07 02:00:08;;;;;;;0.30;0.20;;;;;;;5.73;98.06;99954.72;5052195;28;20447;-54
2024/01/07 02:02:35;;;;;;;0.30;0.13;;;;;;;5.78;98.33;99957.31;5052197;28;20474;-53
2024/01/07 02:05:03;;;;;;;0.90;0.90;;;;;;;5.64;98.96;99958.38;5051941;28;20465;-53
2024/01/07 02:07:30;;;;;;;0.30;0.20;;;;;;;5.69;99.17;99958.31;5051933;28;20486;-54
2024/01/07 02:09:57;;;;;;;0.30;0.20;;;;;;;5.67;98.38;99968.00;5052100;28;20447;-53
2024/01/07 02:12:23;;;;;;;0.30;0.20;;;;;;;5.60;98.60;99963.69;5042932;28;20444;-54
2024/01/07 02:14:50;;;;;;;0.30;0.20;;;;;;;5.57;98.74;99971.66;5047780;28;20454;-54
2024/01/07 02:17:18;;;;;;;0.30;0.20;;;;;;;5.60;99.13;99958.41;5051651;28;20530;-53
2024/01/07 02:19:45;;;;;;;0.30;0.10;;;;;;;5.74;98.23;99963.50;5052018;28;20823;-54
2024/01/07 02:22:12;;;;;;;0.30;0.20;;;;;;;5.74;98.43;99966.13;5042549;28;20509;-54
2024/01/07 02:24:38;;;;;;;0.30;0.10;;;;;;;5.73;98.88;99969.66;5034788;28;20473;-53
2024/01/07 02:27:05;;;;;;;0.30;0.20;;;;;;;5.83;98.61;99973.91;5051839;28;20490;-53
2024/01/07 02:29:31;;;;;;;0.30;0.10;;;;;;;5.75;98.37;99968.75;5051718;28;20545;-53
2024/01/07 02:31:57;;;;;;;0.30;0.20;;;;;;;5.62;98.51;99965.44;5051577;28;20451;-53
2024/01/07 02:34:24;;;;;;;0.30;0.10;;;;;;;5.80;98.29;99964.28;5053790;28;20472;-53
2024/01/07 02:36:50;;;;;;;0.30;0.20;;;;;;;5.61;98.06;99963.66;5051785;28;20475;-53
2024/01/07 02:39:17;;;;;;;0.30;0.10;;;;;;;5.70;99.08;99961.81;5051212;28;20932;-53
2024/01/07 02:41:44;;;;;;;0.30;0.10;;;;;;;5.73;98.32;99970.53;5051440;28;20443;-53
2024/01/07 02:44:10;;;;;;;0.30;0.17;;;;;;;5.87;98.28;99962.44;5051394;28;20545;-53
2024/01/07 02:46:39;;;;;;;0.30;0.20;;;;;;;5.88;98.49;99961.53;5051397;28;20454;-53
2024/01/07 02:49:05;;;;;;;0.30;0.10;;;;;;;5.90;98.23;99973.00;5033421;28;20447;-53
2024/01/07 02:51:32;;;;;;;0.30;0.20;;;;;;;5.84;97.81;99963.34;5043408;28;20508;-53
2024/01/07 02:54:00;;;;;;;0.30;0.20;;;;;;;5.48;98.67;99970.03;5053130;28;21078;-54
2024/01/07 02:56:26;;;;;;;0.30;0.10;;;;;;;5.46;98.38;99963.00;5054385;28;21028;-54
2024/01/07 02:58:52;;;;;;;0.30;0.20;;;;;;;5.57;98.89;99969.88;5054155;28;20449;-54
2024/01/07 03:01:22;;;;;;;0.23;0.10;;;;;;;5.54;99.51;99972.56;5042212;28;20447;-54
2024/01/07 03:03:49;;;;;;;0.30;0.20;;;;;;;5.41;98.84;99970.97;5040315;28;20477;-54
2024/01/07 03:06:16;;;;;;;0.30;0.20;;;;;;;5.48;99.45;99982.31;5041489;28;20456;-54
2024/01/07 03:08:43;;;;;;;0.30;0.20;;;;;;;5.67;98.89;99972.41;5053670;28;20486;-54
2024/01/07 03:11:09;;;;;;;0.30;0.20;;;;;;;5.51;99.06;99975.25;5054267;28;20451;-54
2024/01/07 03:13:35;;;;;;;0.30;0.10;;;;;;;5.47;99.16;99981.44;5040508;28;20471;-55
2024/01/07 03:16:02;;;;;;;0.30;0.20;;;;;;;5.49;99.62;99978.81;5054773;28;20505;-54
2024/01/07 03:18:29;;;;;;;0.30;0.20;;;;;;;5.47;99.33;99978.78;5054346;28;20471;-54
2024/01/07 03:20:56;;;;;;;0.30;0.20;;;;;;;5.53;100.00;99988.41;5052161;28;20462;-54
2024/01/07 03:23:23;;;;;;;0.30;0.20;;;;;;;5.45;99.87;99980.59;5045024;28;20474;-54
2024/01/07 03:25:49;;;;;;;0.30;0.10;;;;;;;5.58;100.00;99987.44;5053447;28;20455;-54
2024/01/07 03:28:16;;;;;;;0.30;0.20;;;;;;;5.55;100.00;99987.50;5042800;28;20494;-55
2024/01/07 03:30:42;;;;;;;0.30;0.10;;;;;;;5.83;100.00;99977.44;5040590;28;20988;-54
2024/01/07 03:33:09;;;;;;;0.30;0.10;;;;;;;5.60;99.73;99976.88;5053613;28;21038;-54
2024/01/07 03:35:36;;;;;;;0.30;0.20;;;;;;;5.68;100.00;99979.41;5052536;28;20458;-54
2024/01/07 03:38:03;;;;;;;0.30;0.20;;;;;;;5.49;100.00;99981.44;5053079;28;20526;-54
2024/01/07 03:40:29;;;;;;;0.30;0.10;;;;;;;5.46;100.00;99981.44;5053265;28;20451;-54
2024/01/07 03:42:55;;;;;;;0.30;0.20;;;;;;;5.37;100.00;99985.09;5034013;28;21099;-54
2024/01/07 03:45:22;;;;;;;0.30;0.20;;;;;;;5.52;100.00;99979.63;5048739;28;20455;-55
2024/01/07 03:47:49;;;;;;;0.20;0.20;;;;;;;5.50;100.00;99973.50;5054221;28;20994;-54
2024/01/07 03:50:16;;;;;;;0.30;0.20;;;;;;;5.31;100.00;99983.38;5039070;28;20451;-55
2024/01/07 03:52:42;;;;;;;0.20;0.10;;;;;;;5.30;100.00;99989.56;5054754;28;20550;-55
2024/01/07 03:55:08;;;;;;;0.30;0.17;;;;;;;5.46;100.00;99990.22;5054498;28;20487;-55
2024/01/07 03:57:35;;;;;;;0.20;0.20;;;;;;;5.38;100.00;99991.25;5046100;28;20453;-55
2024/01/07 04:00:02;;;;;;;0.30;0.20;;;;;;;5.34;100.00;99985.09;5057311;28;20446;-55
2024/01/07 04:02:28;;;;;;;0.20;0.10;;;;;;;5.37;100.00;99977.19;5057789;28;20474;-55
2024/01/07 04:04:55;;;;;;;0.30;0.20;;;;;;;5.54;100.00;99983.09;5057359;28;20519;-56
2024/01/07 04:07:21;;;;;;;0.30;0.10;;;;;;;5.50;99.60;99986.69;5048219;28;20501;-56
2024/01/07 04:09:47;;;;;;;0.20;0.10;;;;;;;5.44;99.51;99980.59;5052816;28;20457;-55
2024/01/07 04:12:14;;;;;;;0.20;0.10;;;;;;;5.45;99.76;99980.59;5057278;28;21154;-55
2024/01/07 04:14:42;;;;;;;0.30;0.10;;;;;;;5.56;99.80;99991.88;5043481;28;20447;-55
2024/01/07 04:17:09;;;;;;;0.30;0.10;;;;;;;5.49;99.82;99995.50;5057374;28;20534;-55
2024/01/07 04:19:38;;;;;;;1.33;1.33;;;;;;;5.29;100.00;99986.94;5057229;28;20549;-55
2024/01/07 04:22:05;;;;;;;0.30;0.20;;;;;;;5.32;100.00;99993.03;5057823;28;20451;-55
2024/01/07 04:24:31;;;;;;;0.30;0.17;;;;;;;5.20;100.00;99992.31;5041225;28;20470;-52
2024/01/07 04:26:58;;;;;;;0.30;0.20;;;;;;;5.13;100.00;99995.91;5054320;28;20541;-52
2024/01/07 04:29:24;;;;;;;0.30;0.10;;;;;;;5.08;100.00;99995.97;5052529;28;20534;-53
2024/01/07 04:31:51;;;;;;;0.30;0.20;;;;;;;5.13;100.00;100003.81;5043589;28;20971;-53
2024/01/07 04:34:18;;;;;;;0.30;0.20;;;;;;;5.21;100.00;100002.00;5050764;28;20519;-52
2024/01/07 04:36:44;;;;;;;0.20;0.10;;;;;;;5.12;100.00;100004.72;5051630;28;20827;-52
2024/01/07 04:39:11;;;;;;;0.30;0.20;;;;;;;5.28;100.00;100011.56;5054006;28;20447;-53
2024/01/07 04:41:37;;;;;;;0.20;0.20;;;;;;;5.47;100.00;100013.06;5054075;28;20479;-53
2024/01/07 04:44:04;;;;;;;0.30;0.20;;;;;;;5.34;100.00;100015.00;5040262;28;20970;-53
2024/01/07 04:46:34;;;;;;;0.30;0.17;;;;;;;5.22;100.00;100019.53;5053895;28;20534;-51
2024/01/07 04:49:00;;;;;;;0.30;0.20;;;;;;;5.19;100.00;100022.19;5053749;28;20565;-52
2024/01/07 04:51:27;;;;;;;0.20;0.20;;;;;;;5.27;100.00;100023.84;5048364;28;20500;-54
2024/01/07 04:53:54;;;;;;;0.30;0.20;;;;;;;5.18;100.00;100026.56;5040275;28;20525;-53
2024/01/07 04:56:20;;;;;;;0.20;0.10;;;;;;;5.28;100.00;100030.88;5042173;28;20510;-52
2024/01/07 04:58:47;;;;;;;0.30;0.20;;;;;;;5.18;100.00;100031.84;5051522;28;21023;-52
2024/01/07 05:01:13;;;;;;;0.20;0.10;;;;;;;5.34;100.00;100038.72;5042328;28;20462;-52
2024/01/07 05:03:40;;;;;;;0.30;0.13;;;;;;;5.24;100.00;100036.19;5051567;28;20471;-53
2024/01/07 05:06:10;;;;;;;0.30;0.20;;;;;;;5.15;100.00;100042.44;5051679;28;20459;-52
2024/01/07 05:08:37;;;;;;;0.20;0.10;;;;;;;5.07;100.00;100044.25;5053083;28;21003;-53
2024/01/07 05:11:04;;;;;;;0.30;0.10;;;;;;;5.11;100.00;100047.75;5041646;28;20535;-52
2024/01/07 05:13:31;;;;;;;0.20;0.20;;;;;;;5.12;100.00;100052.13;5052089;28;20474;-53
2024/01/07 05:15:57;;;;;;;0.20;0.20;;;;;;;5.19;100.00;100049.41;5053239;28;20454;-52
2024/01/07 05:18:24;;;;;;;0.30;0.10;;;;;;;5.09;100.00;100060.06;5039691;28;20537;-52
2024/01/07 05:20:51;;;;;;;0.20;0.10;;;;;;;5.23;100.00;100056.41;5052601;28;21017;-53
2024/01/07 05:23:18;;;;;;;0.20;0.20;;;;;;;5.06;100.00;100063.59;5052948;28;20909;-52
2024/01/07 05:25:45;;;;;;;0.30;0.13;;;;;;;5.28;100.00;100053.72;5052849;28;20461;-52
2024/01/07 05:28:13;;;;;;;0.30;0.20;;;;;;;5.18;100.00;100065.22;5052853;28;20487;-52
2024/01/07 05:30:40;;;;;;;0.30;0.20;;;;;;;5.13;100.00;100064.41;5043035;28;20446;-54
2024/01/07 05:33:07;;;;;;;0.20;0.10;;;;;;;5.24;100.00;100066.06;5039956;28;20525;-52
2024/01/07 05:35:34;;;;;;;0.20;0.13;;;;;;;5.28;100.00;100066.88;5051436;28;20447;-52
2024/01/07 05:38:01;;;;;;;0.30;0.10;;;;;;;5.23;100.00;100072.22;5052884;28;20460;-53
2024/01/07 05:40:28;;;;;;;0.23;0.17;;;;;;;5.04;100.00;100068.00;5052616;28;20538;-53
2024/01/07 05:42:54;;;;;;;0.30;0.27;;;;;;;5.06;100.00;100071.50;5045461;28;20552;-52
2024/01/07 05:45:20;;;;;;;0.20;0.20;;;;;;;5.11;100.00;100067.06;5046547;28;20518;-53
2024/01/07 05:47:47;;;;;;;0.20;0.17;;;;;;;4.99;100.00;100073.31;5052354;28;20593;-52
2024/01/07 05:50:15;;;;;;;0.20;0.10;;;;;;;5.12;100.00;100081.09;5051722;28;20458;-52
2024/01/07 05:52:42;;;;;;;0.23;0.17;;;;;;;5.25;100.00;100080.09;5040235;28;20695;-55
2024/01/07 05:55:09;;;;;;;0.30;0.10;;;;;;;5.27;100.00;100081.81;5051029;28;20447;-52
2024/01/07 05:57:35;;;;;;;0.27;0.20;;;;;;;5.34;100.00;100079.97;5051757;28;20479;-52
2024/01/07 06:00:02;;;;;;;0.20;0.17;;;;;;;5.11;100.00;100084.63;5040507;28;20459;-52
2024/01/07 06:02:29;;;;;;;0.20;0.10;;;;;;;5.14;100.00;100098.66;5051935;28;20546;-53
2024/01/07 06:04:55;;;;;;;0.30;0.20;;;;;;;5.16;100.00;100094.22;5047717;28;20455;-52
2024/01/07 06:07:22;;;;;;;0.20;0.10;;;;;;;5.34;100.00;100096.69;5052362;28;20912;-52
2024/01/07 06:09:48;;;;;;;0.27;0.20;;;;;;;5.24;100.00;100096.81;5048564;28;20450;-51
2024/01/07 06:12:15;;;;;;;0.20;0.10;;;;;;;5.10;100.00;100101.34;5039707;28;21029;-52
2024/01/07 06:14:41;;;;;;;0.20;0.10;;;;;;;5.10;100.00;100096.94;5051820;28;20512;-51
2024/01/07 06:17:08;;;;;;;0.30;0.10;;;;;;;5.09;100.00;100105.72;5051622;28;20446;-52
2024/01/07 06:19:34;;;;;;;0.20;0.20;;;;;;;5.21;100.00;100100.34;5051610;28;20475;-52
2024/01/07 06:22:01;;;;;;;0.20;0.20;;;;;;;5.28;100.00;100106.41;5045793;28;20455;-52
2024/01/07 06:24:27;;;;;;;0.20;0.10;;;;;;;5.19;100.00;100111.75;5046958;28;20983;-52
2024/01/07 06:26:54;;;;;;;0.20;0.10;;;;;;;5.26;100.00;100113.47;5042443;28;20442;-52
2024/01/07 06:29:20;;;;;;;0.20;0.20;;;;;;;5.27;100.00;100116.06;5048845;28;20602;-51
2024/01/07 06:31:48;;;;;;;0.20;0.20;;;;;;;5.23;100.00;100114.38;5051340;28;20904;-52
2024/01/07 06:34:15;;;;;;;0.20;0.10;;;;;;;4.98;100.00;100119.00;5051631;28;20478;-52
2024/01/07 06:36:42;;;;;;;0.20;0.20;;;;;;;5.09;100.00;100123.28;5050055;28;20894;-52
2024/01/07 06:39:09;;;;;;;0.20;0.20;;;;;;;5.18;100.00;100120.56;5051795;28;20447;-52
2024/01/07 06:41:35;;;;;;;0.20;0.10;;;;;;;5.08;100.00;100127.69;5049582;28;20542;-53
2024/01/07 06:44:03;;;;;;;0.20;0.20;;;;;;;5.21;100.00;100133.72;5048418;28;20876;-52
2024/01/07 06:46:29;;;;;;;0.20;0.10;;;;;;;5.27;100.00;100137.16;5051209;28;20541;-52
2024/01/07 06:48:55;;;;;;;0.20;0.10;;;;;;;5.30;100.00;100141.53;5044776;28;20575;-52
2024/01/07 06:51:22;;;;;;;0.20;0.10;;;;;;;5.28;100.00;100141.53;5045831;28;20450;-52
2024/01/07 06:53:50;;;;;;;0.20;0.10;;;;;;;5.16;100.00;100139.00;5050026;28;20580;-52
2024/01/07 06:56:16;;;;;;;0.23;0.10;;;;;;;5.31;100.00;100140.63;5045541;28;20964;-53
2024/01/07 06:58:44;;;;;;;0.30;0.20;;;;;;;5.08;100.00;100143.50;5042915;28;20448;-51
2024/01/07 07:01:11;;;;;;;0.30;0.10;;;;;;;5.18;100.00;100158.31;5042594;28;20493;-52
2024/01/07 07:03:40;;;;;;;0.30;0.10;;;;;;;5.18;100.00;100158.31;5046717;28;21031;-52
2024/01/07 07:06:06;;;;;;;0.30;0.10;;;;;;;5.25;100.00;100162.66;5043150;28;20989;-53
2024/01/07 07:08:33;;;;;;;0.20;0.10;;;;;;;5.16;100.00;100169.75;5051269;28;20496;-52
2024/01/07 07:11:00;;;;;;;0.20;0.10;;;;;;;5.26;100.00;100168.78;5040042;28;20491;-52
2024/01/07 07:13:27;;;;;;;0.30;0.10;;;;;;;5.25;100.00;100172.31;5047705;28;20904;-55
2024/01/07 07:15:54;;;;;;;0.20;0.10;;;;;;;5.40;100.00;100177.44;5043271;28;20451;-55
2024/01/07 07:18:20;;;;;;;0.20;0.20;;;;;;;5.61;100.00;100178.97;5034277;28;20448;-49
2024/01/07 07:20:47;;;;;;;0.20;0.10;;;;;;;5.50;100.00;100181.75;5042079;28;20489;-51
2024/01/07 07:23:13;;;;;;;0.20;0.10;;;;;;;5.68;100.00;100178.03;5051137;28;20474;-51
2024/01/07 07:25:40;;;;;;;0.20;0.20;;;;;;;5.81;100.00;100182.28;5051300;28;20451;-52
2024/01/07 07:28:06;;;;;;;0.30;0.20;;;;;;;5.78;100.00;100192.88;5049779;28;20482;-51
2024/01/07 07:30:33;;;;;;;0.30;0.20;;;;;;;5.94;99.09;100190.97;5042761;28;20448;-51
2024/01/07 07:33:00;;;;;;;0.20;0.10;;;;;;;6.07;98.40;100197.88;5053960;28;20463;-50
2024/01/07 07:35:26;;;;;;;0.20;0.20;;;;;;;5.99;99.20;100198.84;5054793;28;20482;-50
2024/01/07 07:37:53;;;;;;;0.30;0.20;;;;;;;5.88;99.19;100209.47;5054826;28;20481;-50
2024/01/07 07:40:19;;;;;;;0.30;0.10;;;;;;;5.93;99.55;100202.44;5054849;28;20482;-51
2024/01/07 07:42:46;;;;;;;0.20;0.20;;;;;;;6.11;100.00;100207.47;5055005;28;20489;-51
2024/01/07 07:45:12;;;;;;;0.30;0.20;;;;;;;5.87;99.62;100221.78;5042190;28;20452;-50
2024/01/07 07:47:44;;;;;;;0.20;0.10;;;;;;;6.12;99.34;100214.50;5054767;28;20450;-51
2024/01/07 07:50:11;;;;;;;0.27;0.20;;;;;;;6.14;99.88;100225.03;5054060;28;20577;-51
2024/01/07 07:52:37;;;;;;;0.27;0.20;;;;;;;5.77;99.66;100233.34;5041690;28;20474;-51
2024/01/07 07:55:06;;;;;;;0.30;0.20;;;;;;;5.98;100.00;100240.16;5053475;28;20481;-51
2024/01/07 07:57:33;;;;;;;0.20;0.10;;;;;;;5.92;99.50;100245.53;5050056;28;20462;-51
2024/01/07 07:59:59;;;;;;;1.17;1.17;;;;;;;5.79;100.00;100243.88;5053450;28;20622;-51
2024/01/07 08:02:30;;;;;;;0.20;0.20;;;;;;;5.78;100.00;100245.63;5043067;28;20443;-51
2024/01/07 08:04:56;;;;;;;0.20;0.10;;;;;;;5.82;100.00;100254.38;5054461;28;20451;-51
2024/01/07 08:07:27;;;;;;;0.30;0.10;;;;;;;5.72;100.00;100258.84;5044734;28;20470;-51
2024/01/07 08:09:54;;;;;;;0.20;0.10;;;;;;;5.94;100.00;100256.94;5050887;28;20486;-50
2024/01/07 08:12:20;;;;;;;0.30;0.20;;;;;;;5.74;100.00;100250.94;5054592;28;20451;-51
2024/01/07 08:14:47;;;;;;;0.20;0.20;;;;;;;5.93;99.48;100257.81;5040706;28;20542;-51
2024/01/07 08:17:13;;;;;;;0.20;0.20;;;;;;;5.90;99.66;100257.88;5054312;28;20489;-51
2024/01/07 08:19:40;;;;;;;0.20;0.20;;;;;;;5.77;99.77;100262.34;5051091;28;20925;-51
2024/01/07 08:22:07;;;;;;;0.20;0.10;;;;;;;5.78;99.82;100261.47;5043667;28;20504;-51
2024/01/07 08:24:34;;;;;;;0.30;0.20;;;;;;;5.96;98.90;100263.06;5054046;28;21025;-51
2024/01/07 08:27:02;;;;;;;0.53;0.53;;;;;;;6.10;98.74;100257.63;5044277;28;20451;-51
2024/01/07 08:29:29;;;;;;;0.30;0.10;;;;;;;5.95;98.59;100269.22;5049281;28;20522;-51
2024/01/07 08:31:55;;;;;;;0.20;0.10;;;;;;;6.24;98.54;100269.78;5044517;28;21122;-51
2024/01/07 08:34:22;;;;;;;0.23;0.20;;;;;;;6.24;97.04;100269.78;5053767;28;20470;-50
2024/01/07 08:36:49;;;;;;;70.93;21.77;;;;;;;6.03;97.81;100277.94;5053639;28;20442;-51
2024/01/07 08:39:15;;;;;;;0.20;0.10;;;;;;;6.30;96.49;100275.88;5053951;28;20457;-51
2024/01/07 08:41:42;;;;;;;0.20;0.20;;;;;;;6.20;96.80;100280.41;5053678;28;20450;-50
2024/01/07 08:44:08;;;;;;;0.20;0.20;;;;;;;6.32;96.51;100279.41;5040420;28;20894;-51
2024/01/07 08:46:35;;;;;;;0.20;0.20;;;;;;;6.13;96.79;100290.13;5053779;28;20538;-50
2024/01/07 08:49:02;;;;;;;0.20;0.10;;;;;;;6.42;96.07;100283.66;5048999;28;20571;-51
2024/01/07 08:51:29;;;;;;;0.30;0.13;;;;;;;6.28;95.92;100289.09;5045183;28;20451;-50
2024/01/07 08:53:58;;;;;;;0.30;0.17;;;;;;;6.12;95.79;100293.66;5053945;28;20524;-52
2024/01/07 08:56:25;;;;;;;0.30;0.20;;;;;;;6.24;96.93;100293.53;5041548;28;20547;-51
2024/01/07 08:58:52;;;;;;;0.20;0.20;;;;;;;6.26;95.82;100296.16;5052334;28;20522;-51
2024/01/07 09:01:18;;;;;;;0.20;0.10;;;;;;;6.22;95.61;100305.00;5041761;28;20459;-51
2024/01/07 09:03:45;;;;;;;0.20;0.13;;;;;;;5.98;94.49;100303.50;5052161;28;20524;-50
2024/01/07 09:06:11;;;;;;;0.23;0.10;;;;;;;6.12;94.92;100304.22;5053440;28;20447;-51
2024/01/07 09:08:38;;;;;;;0.30;0.20;;;;;;;6.11;94.66;100307.75;5039859;28;20900;-50
2024/01/07 09:11:06;;;;;;;0.20;0.10;;;;;;;6.15;94.25;100304.19;5053301;28;21030;-51
2024/01/07 09:13:32;;;;;;;0.20;0.20;;;;;;;6.25;94.66;100307.59;5047068;28;20472;-51
2024/01/07 09:15:59;;;;;;;0.20;0.10;;;;;;;6.38;94.80;100311.88;5046359;28;20478;-50
2024/01/07 09:18:25;;;;;;;0.30;0.20;;;;;;;6.32;94.41;100324.28;5052956;28;20454;-52
2024/01/07 09:20:52;;;;;;;0.30;0.10;;;;;;;6.45;93.52;100325.88;5040333;28;20498;-53
2024/01/07 09:23:18;;;;;;;0.20;0.10;;;;;;;6.19;94.41;100332.31;5046956;28;20794;-51
2024/01/07 09:25:46;;;;;;;0.30;0.20;;;;;;;6.03;94.41;100332.44;5052925;28;20447;-50
2024/01/07 09:28:12;;;;;;;0.30;0.10;;;;;;;6.22;93.49;100336.69;5052902;28;20473;-50
2024/01/07 09:30:39;;;;;;;0.20;0.20;;;;;;;6.27;93.11;100336.63;5039408;28;20496;-51
2024/01/07 09:33:05;;;;;;;0.30;0.20;;;;;;;6.02;93.91;100352.69;5039448;28;20578;-52
2024/01/07 09:35:32;;;;;;;0.20;0.20;;;;;;;6.20;93.92;100347.25;5052401;28;20943;-52
2024/01/07 09:37:58;;;;;;;0.20;0.10;;;;;;;6.18;92.43;100349.03;5051368;28;21019;-51
2024/01/07 09:40:25;;;;;;;0.20;0.20;;;;;;;6.29;92.31;100353.31;5052768;28;20920;-51
2024/01/07 09:42:52;;;;;;;0.30;0.20;;;;;;;6.45;92.46;100347.00;5045833;28;20911;-51
2024/01/07 09:45:21;;;;;;;0.23;0.20;;;;;;;6.05;92.84;100349.16;5046254;28;20450;-52
2024/01/07 09:47:47;;;;;;;0.30;0.20;;;;;;;5.95;92.47;100358.94;5040003;28;20545;-51
2024/01/07 09:50:14;;;;;;;0.30;0.20;;;;;;;6.09;92.25;100357.03;5039446;28;20494;-50
2024/01/07 09:52:44;;;;;;;0.30;0.13;;;;;;;6.02;90.77;100367.66;5051879;28;20471;-51
2024/01/07 09:55:22;;;;;;;0.23;0.20;;;;;;;5.83;91.59;100369.53;5051311;28;20500;-51
2024/01/07 09:57:49;;;;;;;0.30;0.20;;;;;;;5.68;93.11;100361.75;5042155;28;20463;-50
2024/01/07 10:00:16;;;;;;;0.20;0.10;;;;;;;5.87;93.08;100364.22;5049682;28;20459;-51
2024/01/07 10:02:42;;;;;;;0.30;0.20;;;;;;;5.74;92.48;100364.31;5042571;28;20561;-50
2024/01/07 10:05:09;;;;;;;0.20;0.10;;;;;;;5.92;93.79;100370.38;5052348;28;20542;-50
2024/01/07 10:07:35;;;;;;;0.30;0.20;;;;;;;5.88;93.41;100368.59;5042451;28;20462;-52
2024/01/07 10:10:15;;;;;;;1.53;1.53;;;;;;;5.83;93.88;100370.41;5048910;28;20845;-51
2024/01/07 10:12:46;;;;;;;0.30;0.20;;;;;;;5.60;94.53;100367.94;5052142;28;20470;-50
2024/01/07 10:15:14;;;;;;;0.20;0.10;;;;;;;5.66;94.90;100374.94;5039216;28;20446;-50
2024/01/07 10:17:42;;;;;;;0.30;0.20;;;;;;;5.67;94.70;100383.75;5052154;28;20822;-51
2024/01/07 10:20:09;;;;;;;0.20;0.20;;;;;;;5.62;95.53;100384.66;5045681;28;20483;-51
2024/01/07 10:22:40;;;;;;;0.20;0.10;;;;;;;5.46;94.51;100390.00;5045002;28;21029;-51
2024/01/07 10:25:06;;;;;;;0.20;0.20;;;;;;;5.54;94.87;100391.72;5051045;28;20559;-51
2024/01/07 10:27:35;;;;;;;0.20;0.10;;;;;;;5.23;95.90;100392.81;5052068;28;20450;-50
2024/01/07 10:30:02;;;;;;;11.83;10.30;;;;;;;5.53;95.63;100387.34;5044657;28;20495;-51
2024/01/07 10:32:29;;;;;;;0.20;0.10;;;;;;;5.53;94.81;100384.72;5046122;28;20457;-51
2024/01/07 10:35:03;;;;;;;0.20;0.20;;;;;;;5.68;94.22;100393.41;5051723;28;20451;-51
2024/01/07 10:37:30;;;;;;;0.30;0.10;;;;;;;5.68;93.48;100396.03;5051421;28;20465;-52
2024/01/07 10:40:03;;;;;;;0.20;0.10;;;;;;;5.41;94.47;100400.59;5052083;28;20542;-50
2024/01/07 10:42:33;;;;;;;0.20;0.10;;;;;;;5.31;94.35;100396.25;5048314;28;20444;-51
2024/01/07 10:45:00;;;;;;;0.20;0.10;;;;;;;5.29;94.53;100395.38;5043381;28;20451;-50
2024/01/07 10:47:31;;;;;;;0.20;0.10;;;;;;;5.35;94.69;100388.34;5051788;28;20450;-50
2024/01/07 10:49:58;;;;;;;0.20;0.10;;;;;;;5.37;94.39;100408.53;5039514;28;21006;-51
2024/01/07 10:52:27;;;;;;;0.20;0.10;;;;;;;5.23;94.00;100403.34;5050519;28;20458;-53
2024/01/07 10:54:57;;;;;;;0.30;0.10;;;;;;;5.35;93.89;100406.78;5051990;28;20475;-50
2024/01/07 10:57:40;;;;;;;0.20;0.13;;;;;;;5.23;94.25;100398.06;5046698;28;20444;-50
2024/01/07 11:00:07;;;;;;;0.20;0.17;;;;;;;5.37;94.53;100408.53;5049648;28;20446;-51
2024/01/07 11:02:46;;;;;;;0.23;0.17;;;;;;;5.35;93.74;100404.16;5039921;28;20446;-51
2024/01/07 11:05:43;;;;;;;0.30;0.20;;;;;;;5.29;94.29;100405.94;5055855;28;20443;-51
2024/01/07 11:08:30;;;;;;;0.53;0.53;;;;;;;5.37;94.05;100412.03;5042326;28;20451;-50
2024/01/07 11:11:17;;;;;;;0.30;0.20;;;;;;;5.36;94.11;100410.31;5055280;28;20577;-50
2024/01/07 11:13:44;;;;;;;0.20;0.20;;;;;;;5.42;93.72;100415.53;5043102;28;20525;-50
2024/01/07 11:16:11;;;;;;;0.20;0.20;;;;;;;5.11;94.21;100417.44;5041896;28;20833;-52
2024/01/07 11:18:51;;;;;;;0.20;0.10;;;;;;;5.09;94.35;100416.56;5054207;28;20481;-50
2024/01/07 11:21:24;;;;;;;0.27;0.20;;;;;;;5.20;93.91;100420.00;5052123;28;20449;-51
2024/01/07 11:23:52;;;;;;;0.20;0.10;;;;;;;5.10;93.49;100414.81;5046173;28;20480;-51
2024/01/07 11:26:22;;;;;;;0.40;0.30;;;;;;;5.01;93.41;100413.09;5055201;28;20450;-50
2024/01/07 11:28:57;;;;;;;0.20;0.20;;;;;;;4.91;93.77;100424.53;5055085;28;20529;-50
2024/01/07 11:31:38;;;;;;;0.20;0.10;;;;;;;4.79;94.44;100421.94;5040676;28;20449;-50
2024/01/07 11:34:06;;;;;;;0.20;0.10;;;;;;;4.91;93.75;100422.78;5054819;28;20975;-50